createdAt,value
2022-09-05T00:03:02.614Z,61.71
2022-09-05T00:06:21.037Z,61.43
2022-09-05T00:10:03.625Z,61.33
2022-09-05T00:13:14.024Z,61.13
2022-09-05T00:16:47.447Z,60.75
2022-09-05T00:23:21.490Z,60.73
2022-09-05T00:24:35.329Z,60.59
2022-09-05T00:27:34.765Z,60.49
2022-09-05T00:31:07.376Z,60.46
2022-09-05T00:34:14.546Z,60.79
2022-09-05T00:37:24.523Z,60.63
2022-09-05T00:41:03.857Z,60.60
2022-09-05T00:44:10.651Z,60.97
2022-09-05T00:47:42.639Z,60.98
2022-09-05T00:50:53.724Z,60.80
2022-09-05T00:54:16.091Z,60.76
2022-09-05T00:57:49.433Z,60.57
2022-09-05T01:01:02.849Z,60.79
2022-09-05T01:04:32.635Z,60.80
2022-09-05T01:08:02.132Z,61.06
2022-09-05T01:11:21.369Z,61.01
2022-09-05T01:14:42.233Z,61.18
2022-09-05T01:18:26.451Z,60.86
2022-09-05T01:21:54.942Z,60.64
2022-09-05T01:25:25.163Z,60.52
2022-09-05T01:29:17.907Z,60.66
2022-09-05T01:32:27.530Z,60.79
2022-09-05T01:36:12.253Z,60.58
2022-09-05T01:40:11.394Z,60.12
2022-09-05T01:42:57.558Z,60.55
2022-09-05T01:46:37.628Z,60.60
2022-09-05T01:50:05.146Z,60.85
2022-09-05T01:53:36.551Z,60.55
2022-09-05T01:57:06.260Z,60.48
2022-09-05T02:00:38.648Z,60.39
2022-09-05T02:04:22.012Z,60.62
2022-09-05T02:07:45.374Z,60.70
2022-09-05T02:11:02.519Z,60.58
2022-09-05T02:14:13.197Z,60.43
2022-09-05T02:17:51.199Z,60.39
2022-09-05T02:20:59.418Z,59.97
2022-09-05T02:24:20.450Z,59.93
2022-09-05T02:28:04.292Z,60.27
2022-09-05T02:31:08.170Z,60.08
2022-09-05T02:34:07.556Z,60.15
2022-09-05T02:38:51.032Z,60.14
2022-09-05T02:45:10.556Z,60.13
2022-09-05T02:45:13.702Z,59.94
2022-09-05T02:47:44.712Z,60.22
2022-09-05T02:56:55.183Z,60.03
2022-09-05T02:57:34.203Z,59.82
2022-09-05T02:58:13.903Z,59.71
2022-09-05T03:01:29.576Z,59.69
2022-09-05T03:04:45.842Z,59.56
2022-09-05T03:08:17.207Z,59.45
2022-09-05T03:12:08.499Z,59.48
2022-09-05T03:15:45.072Z,59.41
2022-09-05T03:19:47.031Z,59.41
2022-09-05T03:22:59.599Z,59.03
2022-09-05T03:26:46.778Z,59.15
2022-09-05T03:30:01.560Z,58.78
2022-09-05T03:33:40.806Z,59.14
2022-09-05T03:37:14.876Z,58.57
2022-09-05T03:41:03.230Z,58.42
2022-09-05T03:44:29.678Z,58.19
2022-09-05T03:48:27.771Z,58.57
2022-09-05T03:57:08.731Z,58.32
2022-09-05T03:57:28.230Z,58.28
2022-09-05T03:59:02.094Z,57.91
2022-09-05T04:04:00.308Z,57.57
2022-09-05T04:08:24.665Z,57.09
2022-09-05T04:08:42.064Z,56.94
2022-09-05T04:11:58.270Z,57.02
2022-09-05T04:15:20.546Z,57.16
2022-09-05T04:18:45.791Z,56.72
2022-09-05T04:21:50.872Z,56.44
2022-09-05T04:25:16.375Z,56.21
2022-09-05T04:28:37.233Z,56.81
2022-09-05T04:32:17.809Z,56.95
2022-09-05T04:35:38.209Z,57.21
2022-09-05T04:38:52.832Z,56.92
2022-09-05T04:42:22.692Z,56.99
2022-09-05T04:45:28.619Z,56.87
2022-09-05T04:48:45.264Z,56.57
2022-09-05T04:52:24.089Z,56.21
2022-09-05T04:55:24.598Z,54.67
2022-09-05T05:01:58.960Z,53.78
2022-09-05T05:06:00.769Z,53.28
2022-09-05T05:06:09.582Z,52.50
2022-09-05T05:08:38.931Z,52.72
2022-09-05T05:17:54.345Z,52.60
2022-09-05T05:18:06.881Z,52.27
2022-09-05T05:18:56.525Z,51.62
2022-09-05T05:21:51.870Z,50.90
2022-09-05T05:25:06.898Z,49.93
2022-09-05T05:28:27.827Z,49.72
2022-09-05T05:31:45.102Z,49.49
2022-09-05T05:34:58.343Z,48.99
2022-09-05T05:38:30.582Z,49.45
2022-09-05T05:41:41.844Z,49.71
2022-09-05T05:44:49.179Z,48.82
2022-09-05T05:48:02.070Z,47.85
2022-09-05T05:51:47.540Z,48.16
2022-09-05T05:55:45.239Z,48.08
2022-09-05T05:58:43.251Z,48.02
2022-09-05T06:02:27.664Z,48.05
2022-09-05T06:06:10.142Z,48.35
2022-09-05T06:14:47.863Z,47.39
2022-09-05T06:14:57.994Z,46.72
2022-09-05T06:17:40.743Z,47.04
2022-09-05T06:22:10.742Z,47.15
2022-09-05T06:25:39.278Z,47.22
2022-09-05T06:29:09.434Z,46.48
2022-09-05T06:32:17.612Z,46.15
2022-09-05T06:35:45.619Z,46.00
2022-09-05T06:39:17.370Z,44.53
2022-09-05T06:42:43.232Z,42.33
2022-09-05T06:45:58.879Z,41.57
2022-09-05T06:49:33.477Z,41.47
2022-09-05T06:53:30.097Z,40.40
2022-09-05T06:56:33.052Z,39.88
2022-09-05T07:00:35.833Z,40.49
2022-09-05T07:04:33.353Z,40.29
2022-09-05T07:07:31.253Z,40.56
2022-09-05T07:10:52.979Z,40.19
2022-09-05T07:14:11.809Z,39.40
2022-09-05T07:17:53.545Z,39.60
2022-09-05T07:21:17.411Z,39.52
2022-09-05T07:24:53.212Z,39.34
2022-09-05T07:28:28.395Z,38.41
2022-09-05T07:31:09.624Z,37.73
2022-09-05T07:34:41.088Z,37.90
2022-09-05T07:37:51.329Z,37.75
2022-09-05T07:41:16.094Z,37.48
2022-09-05T07:44:40.534Z,36.32
2022-09-05T07:47:48.070Z,35.64
2022-09-05T07:52:21.105Z,34.38
2022-09-05T07:57:03.983Z,33.55
2022-09-05T07:57:50.850Z,33.13
2022-09-05T08:00:49.874Z,32.24
2022-09-05T08:03:55.651Z,32.16
2022-09-05T08:07:47.021Z,32.14
2022-09-05T08:10:15.795Z,32.28
2022-09-05T08:13:23.406Z,31.77
2022-09-05T08:16:32.120Z,32.23
2022-09-05T08:20:21.194Z,31.17
2022-09-05T08:24:13.274Z,30.90
2022-09-05T08:27:38.706Z,31.14
2022-09-05T08:30:47.294Z,30.99
2022-09-05T08:33:54.982Z,29.86
2022-09-05T08:37:05.265Z,30.16
2022-09-05T08:40:18.756Z,29.05
2022-09-05T08:46:38.032Z,29.42
2022-09-05T08:47:45.436Z,29.58
2022-09-05T08:51:11.800Z,29.39
2022-09-05T08:54:49.811Z,29.20
2022-09-05T08:58:15.648Z,29.01
2022-09-05T09:01:44.542Z,29.21
2022-09-05T09:05:22.071Z,29.07
2022-09-05T09:09:05.358Z,28.95
2022-09-05T09:12:22.790Z,29.30
2022-09-05T09:15:35.371Z,27.36
2022-09-05T09:19:08.057Z,27.04
2022-09-05T09:22:50.103Z,27.04
2022-09-05T09:26:06.797Z,27.14
2022-09-05T09:29:22.993Z,26.65
2022-09-05T09:32:45.861Z,26.95
2022-09-05T09:36:07.709Z,26.50
2022-09-05T09:39:37.790Z,27.11
2022-09-05T09:43:06.778Z,26.15
2022-09-05T09:46:34.021Z,25.76
2022-09-05T09:49:51.134Z,25.58
2022-09-05T09:53:22.223Z,26.21
2022-09-05T09:56:48.996Z,26.77
2022-09-05T10:00:27.865Z,26.08
2022-09-05T10:10:23.317Z,25.67
2022-09-05T10:10:47.950Z,25.90
2022-09-05T10:10:57.760Z,25.96
2022-09-05T10:14:49.287Z,26.09
2022-09-05T10:18:12.943Z,26.99
2022-09-05T10:21:44.951Z,26.61
2022-09-05T10:25:37.553Z,25.86
2022-09-05T10:28:51.443Z,26.12
2022-09-05T10:35:10.322Z,25.09
2022-09-05T10:35:48.676Z,25.80
2022-09-05T10:39:00.656Z,26.13
2022-09-05T10:42:23.704Z,26.61
2022-09-05T10:45:38.929Z,26.63
2022-09-05T10:48:56.352Z,27.01
2022-09-05T10:52:18.523Z,27.56
2022-09-05T10:56:05.136Z,26.95
2022-09-05T11:02:16.413Z,26.78
2022-09-05T11:02:42.396Z,26.45
2022-09-05T11:05:54.414Z,26.57
2022-09-05T11:09:23.146Z,24.88
2022-09-05T11:12:57.766Z,25.33
2022-09-05T11:16:46.036Z,25.75
2022-09-05T11:20:00.182Z,25.71
2022-09-05T11:23:05.799Z,24.80
2022-09-05T11:26:15.754Z,25.30
2022-09-05T11:29:24.826Z,25.59
2022-09-05T11:38:16.546Z,27.03
2022-09-05T11:40:08.285Z,27.78
2022-09-05T11:40:31.357Z,27.02
2022-09-05T11:43:30.483Z,27.06
2022-09-05T11:47:27.218Z,27.23
2022-09-05T11:50:32.327Z,27.44
2022-09-05T11:54:02.190Z,27.33
2022-09-05T11:57:33.302Z,27.13
2022-09-05T12:01:38.332Z,26.76
2022-09-05T12:05:48.857Z,26.40
2022-09-05T12:08:50.303Z,26.59
2022-09-05T12:12:40.966Z,25.43
2022-09-05T12:15:52.066Z,25.32
2022-09-05T12:18:44.777Z,25.06
2022-09-05T12:22:10.267Z,24.54
2022-09-05T12:29:27.370Z,24.53
2022-09-05T12:33:32.758Z,24.90
2022-09-05T12:36:10.278Z,23.51
2022-09-05T12:41:33.997Z,23.99
2022-09-05T12:42:08.623Z,24.60
2022-09-05T12:42:27.833Z,24.14
2022-09-05T12:45:39.491Z,24.04
2022-09-05T12:49:04.609Z,24.29
2022-09-05T12:52:16.690Z,23.94
2022-09-05T12:55:38.155Z,24.24
2022-09-05T13:02:57.553Z,23.98
2022-09-05T13:03:02.329Z,24.01
2022-09-05T13:05:05.950Z,23.93
2022-09-05T13:08:12.805Z,24.52
2022-09-05T13:14:48.062Z,23.46
2022-09-05T13:14:53.083Z,23.87
2022-09-05T13:17:59.950Z,23.77
2022-09-05T13:21:14.941Z,24.60
2022-09-05T13:24:29.331Z,24.08
2022-09-05T13:27:40.077Z,24.19
2022-09-05T13:34:50.715Z,23.70
2022-09-05T13:38:01.202Z,23.71
2022-09-05T13:38:17.620Z,23.27
2022-09-05T13:40:42.383Z,24.11
2022-09-05T13:43:42.522Z,24.01
2022-09-05T13:46:45.125Z,23.79
2022-09-05T13:49:47.426Z,23.86
2022-09-05T13:52:56.758Z,23.96
2022-09-05T13:56:07.315Z,23.95
2022-09-05T13:59:26.458Z,24.52
2022-09-05T14:06:36.615Z,24.75
2022-09-05T14:09:50.893Z,23.97
2022-09-05T14:13:05.694Z,24.31
2022-09-05T14:16:18.655Z,24.62
2022-09-05T14:19:49.924Z,24.84
2022-09-05T14:23:09.565Z,24.84
2022-09-05T14:26:16.486Z,25.26
2022-09-05T14:29:42.949Z,25.06
2022-09-05T14:37:40.947Z,25.37
2022-09-05T14:37:52.208Z,25.60
2022-09-05T14:40:30.757Z,25.64
2022-09-05T14:43:37.553Z,25.37
2022-09-05T14:47:35.074Z,25.85
2022-09-05T14:50:55.623Z,25.86
2022-09-05T15:02:38.684Z,26.31
2022-09-05T15:02:55.256Z,26.45
2022-09-05T15:07:15.936Z,27.26
2022-09-05T15:12:18.010Z,27.34
2022-09-05T15:13:46.339Z,27.25
2022-09-05T15:16:54.999Z,27.24
2022-09-05T15:20:11.751Z,27.04
2022-09-05T15:23:26.273Z,27.61
2022-09-05T15:26:35.929Z,27.60
2022-09-05T15:29:49.454Z,27.80
2022-09-05T15:32:55.282Z,28.17
2022-09-05T15:36:01.174Z,28.28
2022-09-05T15:39:11.751Z,28.70
2022-09-05T15:42:34.217Z,29.20
2022-09-05T15:45:52.839Z,30.15
2022-09-05T15:48:58.530Z,30.96
2022-09-05T15:52:06.184Z,31.05
2022-09-05T15:55:24.684Z,31.90
2022-09-05T15:58:35.954Z,32.90
2022-09-05T16:01:59.948Z,33.39
2022-09-05T16:10:28.190Z,34.05
2022-09-05T16:10:38.256Z,34.28
2022-09-05T16:15:53.506Z,35.30
2022-09-05T16:23:17.036Z,35.75
2022-09-05T16:23:32.504Z,35.57
2022-09-05T16:24:58.465Z,34.17
2022-09-05T16:28:13.949Z,37.32
2022-09-05T16:31:53.411Z,37.85
2022-09-05T16:35:17.110Z,38.44
2022-09-05T16:38:49.911Z,38.68
2022-09-05T16:42:00.108Z,38.58
2022-09-05T16:45:10.630Z,38.37
2022-09-05T16:48:44.481Z,38.12
2022-09-05T16:52:06.587Z,38.77
2022-09-05T16:55:34.365Z,39.14
2022-09-05T16:59:03.639Z,39.17
2022-09-05T17:02:38.117Z,38.60
2022-09-05T17:05:56.646Z,38.38
2022-09-05T17:09:12.980Z,38.18
2022-09-05T17:12:08.949Z,38.23
2022-09-05T17:15:19.489Z,38.11
2022-09-05T17:18:31.801Z,37.88
2022-09-05T17:27:31.829Z,37.63
2022-09-05T17:29:16.161Z,38.23
2022-09-05T17:29:34.490Z,39.44
2022-09-05T17:31:50.898Z,40.17
2022-09-05T17:34:32.364Z,40.47
2022-09-05T17:38:11.010Z,40.93
2022-09-05T17:41:26.744Z,41.40
2022-09-05T17:44:47.972Z,41.63
2022-09-05T17:48:07.066Z,41.74
2022-09-05T17:51:12.288Z,41.86
2022-09-05T17:54:24.845Z,41.97
2022-09-05T17:57:48.380Z,42.39
2022-09-05T18:01:04.216Z,42.83
2022-09-05T18:04:17.636Z,43.31
2022-09-05T18:07:25.002Z,43.71
2022-09-05T18:10:30.610Z,43.94
2022-09-05T18:13:36.580Z,44.18
2022-09-05T18:17:35.974Z,44.07
2022-09-05T18:20:07.387Z,43.74
2022-09-05T18:23:39.449Z,43.85
2022-09-05T18:26:43.354Z,43.76
2022-09-05T18:29:58.206Z,43.81
2022-09-05T18:33:56.385Z,43.58
2022-09-05T18:36:33.533Z,43.66
2022-09-05T18:39:53.030Z,43.56
2022-09-05T18:43:10.577Z,43.69
2022-09-05T18:46:13.766Z,43.76
2022-09-05T18:50:24.634Z,43.93
2022-09-05T18:53:09.060Z,43.97
2022-09-05T18:57:02.982Z,44.27
2022-09-05T18:59:51.532Z,44.20
2022-09-05T19:03:03.978Z,44.51
2022-09-05T19:06:36.716Z,44.67
2022-09-05T19:09:26.667Z,44.81
2022-09-05T19:12:33.116Z,45.12
2022-09-05T19:15:41.119Z,45.67
2022-09-05T19:18:48.637Z,45.93
2022-09-05T19:22:39.527Z,45.84
2022-09-05T19:25:15.151Z,46.15
2022-09-05T19:36:50.010Z,46.56
2022-09-05T19:36:54.779Z,46.20
2022-09-05T19:37:09.247Z,46.33
2022-09-05T19:38:16.012Z,46.63
2022-09-05T19:47:25.257Z,46.95
2022-09-05T19:47:39.124Z,47.41
2022-09-05T19:48:07.674Z,47.90
2022-09-05T19:51:16.830Z,48.28
2022-09-05T19:54:19.067Z,48.27
2022-09-05T19:57:31.574Z,48.24
2022-09-05T20:00:32.982Z,48.15
2022-09-05T20:03:39.910Z,47.68
2022-09-05T20:06:45.048Z,47.45
2022-09-05T20:09:58.256Z,47.66
2022-09-05T20:13:03.203Z,47.65
2022-09-05T20:16:08.616Z,47.62
2022-09-05T20:19:14.444Z,47.47
2022-09-05T20:22:47.597Z,47.47
2022-09-05T20:25:56.593Z,47.83
2022-09-05T20:29:02.976Z,47.57
2022-09-05T20:32:08.881Z,47.17
2022-09-05T20:38:00.637Z,47.19
2022-09-05T20:43:18.017Z,47.53
2022-09-05T20:43:29.087Z,47.42
2022-09-05T20:44:47.969Z,47.66
2022-09-05T20:54:05.522Z,47.60
2022-09-05T20:54:18.670Z,47.42
2022-09-05T20:54:32.109Z,46.99
2022-09-05T20:57:32.020Z,46.82
2022-09-05T21:00:38.617Z,47.10
2022-09-05T21:03:46.191Z,47.43
2022-09-05T21:06:53.975Z,47.43
2022-09-05T21:10:13.988Z,47.68
2022-09-05T21:13:20.409Z,47.50
2022-09-05T21:16:31.697Z,47.34
2022-09-05T21:19:53.536Z,47.53
2022-09-05T21:22:57.883Z,47.84
2022-09-05T21:26:08.824Z,48.14
2022-09-05T21:29:27.217Z,48.58
2022-09-05T21:32:38.263Z,49.11
2022-09-05T21:35:39.048Z,49.43
2022-09-05T21:38:55.445Z,49.46
2022-09-05T21:42:06.471Z,49.93
2022-09-05T21:47:48.739Z,50.42
2022-09-05T21:48:17.123Z,50.88
2022-09-05T21:51:28.976Z,51.42
2022-09-05T21:59:20.899Z,51.63
2022-09-05T21:59:33.206Z,51.90
2022-09-05T22:00:56.709Z,52.09
2022-09-05T22:04:04.405Z,52.39
2022-09-05T22:07:11.957Z,52.30
2022-09-05T22:10:19.048Z,52.51
2022-09-05T22:13:25.465Z,52.94
2022-09-05T22:16:31.641Z,52.54
2022-09-05T22:19:40.203Z,52.39
2022-09-05T22:22:46.860Z,52.90
2022-09-05T22:25:51.360Z,53.34
2022-09-05T22:28:56.329Z,53.62
2022-09-05T22:32:02.933Z,53.66
2022-09-05T22:35:27.490Z,54.49
2022-09-05T22:38:21.489Z,54.66
2022-09-05T22:41:30.301Z,55.13
2022-09-05T22:44:33.662Z,55.84
2022-09-05T22:47:39.465Z,55.78
2022-09-05T22:50:44.866Z,55.71
2022-09-05T22:53:50.072Z,55.85
2022-09-05T22:56:57.244Z,55.72
2022-09-05T23:00:03.532Z,56.15
2022-09-05T23:03:14.082Z,57.09
2022-09-05T23:06:22.525Z,57.07
2022-09-05T23:09:28.802Z,57.06
2022-09-05T23:12:35.494Z,57.35
2022-09-05T23:15:42.366Z,57.61
2022-09-05T23:18:49.367Z,57.60
2022-09-05T23:21:55.965Z,58.18
2022-09-05T23:25:02.557Z,58.82
2022-09-05T23:28:08.326Z,58.89
2022-09-05T23:31:17.103Z,58.83
2022-09-05T23:34:23.523Z,59.37
2022-09-05T23:37:29.657Z,59.49
2022-09-05T23:40:36.489Z,59.53
2022-09-05T23:43:42.380Z,59.42
2022-09-05T23:46:47.838Z,59.45
2022-09-05T23:49:54.780Z,59.50
2022-09-05T23:53:01.992Z,59.36
2022-09-05T23:56:08.553Z,59.54
2022-09-05T23:59:14.642Z,59.55
